Time;durP1;ratioP1;P1;durP2;ratioP2;P2;SDS_P1;SDS_P2;PMS_P1;PMS_P2;Temp;Humidity;BMP_temperature;BMP_pressure;BME280_temperature;BME280_humidity;BME280_pressure;Samples;Min_cycle;Max_cycle;Signal;HPM_P1;HPM_P2
2022/06/11 00:00:28;;;;;;;;;8.25;8.25;;;;;;;;4977474;28;46092;-67
2022/06/11 00:02:53;;;;;;;;;10.00;9.00;;;;;;;;4986458;28;45351;-66
2022/06/11 00:05:20;;;;;;;;;7.75;7.75;;;;;;;;4983886;28;45508;-67
2022/06/11 00:07:45;;;;;;;;;6.50;6.50;;;;;;;;4988465;28;45633;-67
2022/06/11 00:10:11;;;;;;;;;9.75;9.75;;;;;;;;4981910;28;46532;-66
2022/06/11 00:12:36;;;;;;;;;7.75;7.75;;;;;;;;4983993;28;45633;-66
2022/06/11 00:15:03;;;;;;;;;10.00;10.00;;;;;;;;4988878;28;45735;-66
2022/06/11 00:17:28;;;;;;;;;7.75;7.75;;;;;;;;4980643;28;45613;-66
2022/06/11 00:19:53;;;;;;;;;9.00;9.00;;;;;;;;4999344;28;48399;-66
2022/06/11 00:22:19;;;;;;;;;7.25;7.25;;;;;;;;4991656;28;46193;-66
2022/06/11 00:24:44;;;;;;;;;8.75;8.50;;;;;;;;5017942;28;45528;-66
2022/06/11 00:27:10;;;;;;;;;6.00;6.00;;;;;;;;4986916;28;45559;-65
2022/06/11 00:29:36;;;;;;;;;5.50;5.50;;;;;;;;5012743;28;47570;-66
2022/06/11 00:32:01;;;;;;;;;5.25;5.25;;;;;;;;4989207;28;45532;-66
2022/06/11 00:34:27;;;;;;;;;8.50;8.00;;;;;;;;4980293;28;45490;-66
2022/06/11 00:36:52;;;;;;;;;7.25;7.25;;;;;;;;4986261;28;45479;-66
2022/06/11 00:39:29;;;;;;;;;7.00;6.50;;;;;;;;4987839;28;48837;-65
2022/06/11 00:41:58;;;;;;;;;5.75;5.75;;;;;;;;4980471;28;45767;-65
2022/06/11 00:44:23;;;;;;;;;4.00;4.00;;;;;;;;4991250;28;45466;-66
2022/06/11 00:47:07;;;;;;;;;5.00;5.00;;;;;;;;4981453;28;45549;-66
2022/06/11 00:49:32;;;;;;;;;6.00;4.75;;;;;;;;4985881;28;48503;-66
2022/06/11 00:52:03;;;;;;;;;6.00;6.00;;;;;;;;4983779;28;45506;-66
2022/06/11 00:54:30;;;;;;;;;5.00;5.00;;;;;;;;4983024;28;45500;-66
2022/06/11 00:56:56;;;;;;;;;5.00;5.00;;;;;;;;4988697;28;45648;-65
2022/06/11 00:59:27;;;;;;;;;5.50;5.50;;;;;;;;4982596;28;46282;-66
2022/06/11 01:01:52;;;;;;;;;4.00;4.00;;;;;;;;4988323;28;45563;-65
2022/06/11 01:04:36;;;;;;;;;4.50;4.50;;;;;;;;4980739;28;45590;-66
2022/06/11 01:07:14;;;;;;;;;5.25;5.25;;;;;;;;5007704;28;45479;-66
2022/06/11 01:09:47;;;;;;;;;6.75;5.50;;;;;;;;4986206;28;46068;-66
2022/06/11 01:12:20;;;;;;;;;6.50;6.50;;;;;;;;4982831;28;45351;-65
2022/06/11 01:14:48;;;;;;;;;5.50;5.50;;;;;;;;5006914;28;45386;-67
2022/06/11 01:17:16;;;;;;;;;4.25;4.25;;;;;;;;5002471;28;45448;-66
2022/06/11 01:19:55;;;;;;;;;4.25;4.25;;;;;;;;4990177;28;45714;-65
2022/06/11 01:22:39;;;;;;;;;4.50;4.50;;;;;;;;4981372;28;45522;-65
2022/06/11 01:25:10;;;;;;;;;4.50;4.50;;;;;;;;4980229;28;45443;-65
2022/06/11 01:27:44;;;;;;;;;4.00;4.00;;;;;;;;4989437;28;45511;-67
2022/06/11 01:30:31;;;;;;;;;8.00;8.00;;;;;;;;4985072;28;45881;-66
2022/06/11 01:33:11;;;;;;;;;4.25;4.25;;;;;;;;4975066;28;46240;-65
2022/06/11 01:35:45;;;;;;;;;6.25;5.00;;;;;;;;4976605;28;45454;-65
2022/06/11 01:38:11;;;;;;;;;6.50;6.00;;;;;;;;5011919;28;45571;-65
2022/06/11 01:40:37;;;;;;;;;5.00;5.00;;;;;;;;5006469;28;46880;-66
2022/06/11 01:43:12;;;;;;;;;5.75;5.75;;;;;;;;5006390;28;46101;-66
2022/06/11 01:45:38;;;;;;;;;4.00;4.00;;;;;;;;4973444;28;45460;-66
2022/06/11 01:48:04;;;;;;;;;6.00;4.75;;;;;;;;4973661;28;45543;-65
2022/06/11 01:50:31;;;;;;;;;5.25;5.25;;;;;;;;4989750;28;47770;-66
2022/06/11 01:52:56;;;;;;;;;5.00;5.00;;;;;;;;4973084;28;45434;-66
2022/06/11 01:55:40;;;;;;;;;5.00;4.00;;;;;;;;5006361;28;45449;-67
2022/06/11 01:58:25;;;;;;;;;7.50;6.00;;;;;;;;4974094;28;45387;-66
2022/06/11 02:00:59;;;;;;;;;5.25;5.00;;;;;;;;4972229;28;49095;-66
2022/06/11 02:03:35;;;;;;;;;5.50;5.50;;;;;;;;4975178;28;45447;-65
2022/06/11 02:06:06;;;;;;;;;5.25;4.00;;;;;;;;4973896;28;45418;-65
2022/06/11 02:08:50;;;;;;;;;4.00;4.00;;;;;;;;4973781;28;45395;-66
2022/06/11 02:11:34;;;;;;;;;5.75;5.75;;;;;;;;4975280;28;45454;-67
2022/06/11 02:14:25;;;;;;;;;4.75;4.75;;;;;;;;5007204;28;46237;-65
2022/06/11 02:16:50;;;;;;;;;6.75;6.00;;;;;;;;4975203;28;45494;-65
2022/06/11 02:19:18;;;;;;;;;6.25;6.25;;;;;;;;4974680;28;45481;-65
2022/06/11 02:21:49;;;;;;;;;8.50;8.25;;;;;;;;4974827;28;45447;-65
2022/06/11 02:24:17;;;;;;;;;8.50;7.75;;;;;;;;4972843;28;45472;-65
2022/06/11 02:26:49;;;;;;;;;6.00;5.75;;;;;;;;4989921;28;45586;-66
2022/06/11 02:29:16;;;;;;;;;10.75;10.50;;;;;;;;4975660;28;45487;-65
2022/06/11 02:31:44;;;;;;;;;8.25;8.25;;;;;;;;4973188;28;47616;-65
2022/06/11 02:34:13;;;;;;;;;8.50;6.50;;;;;;;;4974233;28;45482;-65
2022/06/11 02:37:05;;;;;;;;;6.50;6.50;;;;;;;;5005948;28;45588;-65
2022/06/11 02:39:32;;;;;;;;;5.75;5.00;;;;;;;;4952343;28;45420;-66
2022/06/11 02:41:57;;;;;;;;;8.25;6.75;;;;;;;;4937556;28;48582;-65
2022/06/11 02:44:24;;;;;;;;;6.50;6.50;;;;;;;;4952397;28;45785;-65
2022/06/11 02:46:50;;;;;;;;;5.50;5.50;;;;;;;;4949744;28;45422;-65
2022/06/11 02:49:15;;;;;;;;;6.75;6.25;;;;;;;;4932834;28;45573;-65
2022/06/11 02:51:40;;;;;;;;;7.00;6.00;;;;;;;;4968542;28;48593;-65
2022/06/11 02:54:05;;;;;;;;;9.50;8.00;;;;;;;;4952225;28;45499;-65
2022/06/11 02:56:31;;;;;;;;;9.25;9.25;;;;;;;;4952332;28;45495;-64
2022/06/11 02:58:56;;;;;;;;;3.75;3.75;;;;;;;;4949591;28;45665;-64
2022/06/11 03:01:22;;;;;;;;;9.00;7.75;;;;;;;;4949449;28;46043;-66
2022/06/11 03:03:49;;;;;;;;;6.50;6.50;;;;;;;;4952039;28;45452;-65
2022/06/11 03:06:15;;;;;;;;;8.75;7.50;;;;;;;;4968319;28;45572;-66
2022/06/11 03:08:40;;;;;;;;;7.25;5.75;;;;;;;;4952105;28;45316;-65
2022/06/11 03:11:06;;;;;;;;;6.50;6.00;;;;;;;;4952377;28;45607;-65
2022/06/11 03:13:31;;;;;;;;;5.00;4.75;;;;;;;;4951982;28;45542;-65
2022/06/11 03:15:57;;;;;;;;;5.75;5.75;;;;;;;;4959348;28;45632;-65
2022/06/11 03:18:23;;;;;;;;;6.50;6.00;;;;;;;;4973919;28;45477;-66
2022/06/11 03:20:50;;;;;;;;;5.00;5.00;;;;;;;;4973899;28;45451;-65
2022/06/11 03:23:16;;;;;;;;;5.25;5.25;;;;;;;;4974670;28;45367;-65
2022/06/11 03:25:41;;;;;;;;;8.00;7.00;;;;;;;;4973835;28;45347;-65
2022/06/11 03:28:07;;;;;;;;;8.50;8.25;;;;;;;;5005358;28;45461;-65
2022/06/11 03:30:33;;;;;;;;;7.50;5.50;;;;;;;;4973567;28;45884;-65
2022/06/11 03:32:58;;;;;;;;;5.75;5.75;;;;;;;;4972258;28;45439;-65
2022/06/11 03:35:23;;;;;;;;;7.50;7.50;;;;;;;;4972468;28;45360;-66
2022/06/11 03:37:48;;;;;;;;;6.25;6.25;;;;;;;;4974294;28;45304;-66
2022/06/11 03:40:13;;;;;;;;;6.25;5.25;;;;;;;;4973493;28;45351;-65
2022/06/11 03:42:39;;;;;;;;;6.50;5.50;;;;;;;;4973694;28;45464;-65
2022/06/11 03:45:05;;;;;;;;;5.25;5.25;;;;;;;;4973839;28;45505;-65
2022/06/11 03:47:31;;;;;;;;;6.50;6.50;;;;;;;;4972584;28;45379;-66
2022/06/11 03:49:56;;;;;;;;;6.75;6.75;;;;;;;;4973820;28;45480;-66
2022/06/11 03:52:22;;;;;;;;;6.75;6.75;;;;;;;;4972191;28;45574;-65
2022/06/11 03:54:48;;;;;;;;;8.75;7.75;;;;;;;;5004921;28;45569;-65
2022/06/11 03:57:13;;;;;;;;;8.50;8.50;;;;;;;;5004805;28;45499;-65
2022/06/11 03:59:38;;;;;;;;;7.50;7.50;;;;;;;;4973691;28;45530;-66
2022/06/11 04:02:04;;;;;;;;;8.00;7.00;;;;;;;;4973846;28;45351;-66
2022/06/11 04:04:29;;;;;;;;;8.00;8.00;;;;;;;;4972041;28;45459;-67
2022/06/11 04:06:57;;;;;;;;;8.25;6.25;;;;;;;;4973272;28;45402;-66
2022/06/11 04:09:29;;;;;;;;;8.00;8.00;;;;;;;;4972981;28;47106;-66
2022/06/11 04:11:54;;;;;;;;;8.75;7.00;;;;;;;;4973076;28;45373;-67
2022/06/11 04:14:19;;;;;;;;;9.25;9.25;;;;;;;;4973486;28;45433;-67
2022/06/11 04:16:47;;;;;;;;;7.75;7.75;;;;;;;;5004940;28;45921;-67
2022/06/11 04:19:22;;;;;;;;;7.50;7.50;;;;;;;;4971653;28;48892;-64
2022/06/11 04:21:47;;;;;;;;;8.50;6.75;;;;;;;;4971517;28;45579;-67
2022/06/11 04:24:13;;;;;;;;;6.25;5.00;;;;;;;;4973430;28;45347;-65
2022/06/11 04:26:43;;;;;;;;;9.75;7.75;;;;;;;;4973104;28;45728;-66
2022/06/11 04:29:09;;;;;;;;;8.00;8.00;;;;;;;;5004606;28;48868;-66
2022/06/11 04:31:35;;;;;;;;;5.25;5.25;;;;;;;;4972533;28;45461;-65
2022/06/11 04:34:00;;;;;;;;;7.75;7.25;;;;;;;;4971390;28;45384;-66
2022/06/11 04:36:28;;;;;;;;;5.50;4.25;;;;;;;;5004284;28;45462;-65
2022/06/11 04:38:53;;;;;;;;;6.00;6.00;;;;;;;;4972896;28;45839;-66
2022/06/11 04:41:18;;;;;;;;;6.50;6.50;;;;;;;;4973253;28;45375;-66
2022/06/11 04:43:43;;;;;;;;;8.25;7.00;;;;;;;;5004526;28;45482;-66
2022/06/11 04:46:09;;;;;;;;;5.75;5.25;;;;;;;;4972664;28;45338;-67
2022/06/11 04:48:35;;;;;;;;;6.75;6.75;;;;;;;;4974841;28;45379;-67
2022/06/11 04:51:01;;;;;;;;;8.25;8.25;;;;;;;;4975886;28;46223;-67
2022/06/11 04:53:26;;;;;;;;;7.50;7.00;;;;;;;;4976398;28;45469;-67
2022/06/11 04:55:52;;;;;;;;;4.75;4.75;;;;;;;;4991413;28;45972;-67
2022/06/11 04:58:17;;;;;;;;;8.25;8.25;;;;;;;;4975762;28;46247;-66
2022/06/11 05:00:43;;;;;;;;;9.25;8.25;;;;;;;;4974585;28;45488;-66
2022/06/11 05:03:08;;;;;;;;;7.50;6.00;;;;;;;;4975923;28;45495;-66
2022/06/11 05:05:33;;;;;;;;;5.75;5.75;;;;;;;;4975981;28;45423;-66
2022/06/11 05:07:59;;;;;;;;;5.00;5.00;;;;;;;;5007761;28;48595;-66
2022/06/11 05:10:26;;;;;;;;;5.25;5.25;;;;;;;;4973914;28;45556;-67
2022/06/11 05:12:51;;;;;;;;;8.00;7.75;;;;;;;;4975577;28;45457;-67
2022/06/11 05:15:16;;;;;;;;;7.75;7.75;;;;;;;;5007540;28;45509;-68
2022/06/11 05:17:41;;;;;;;;;10.25;9.50;;;;;;;;4978744;28;46222;-66
2022/06/11 05:20:08;;;;;;;;;6.00;6.00;;;;;;;;4993094;28;45587;-66
2022/06/11 05:22:34;;;;;;;;;9.50;8.25;;;;;;;;4976530;28;45630;-69
2022/06/11 05:24:59;;;;;;;;;7.00;7.00;;;;;;;;4975718;28;45521;-67
2022/06/11 05:27:25;;;;;;;;;7.25;5.50;;;;;;;;4977815;28;45296;-68
2022/06/11 05:29:53;;;;;;;;;7.75;7.75;;;;;;;;4977686;28;45995;-67
2022/06/11 05:32:19;;;;;;;;;7.00;6.50;;;;;;;;4978180;28;45418;-67
2022/06/11 05:34:45;;;;;;;;;8.25;7.50;;;;;;;;4993174;28;45462;-66
2022/06/11 05:37:11;;;;;;;;;9.75;9.50;;;;;;;;4977411;28;46214;-66
2022/06/11 05:39:36;;;;;;;;;9.00;9.00;;;;;;;;5009297;28;46408;-66
2022/06/11 05:42:02;;;;;;;;;7.75;6.00;;;;;;;;4977607;28;45461;-66
2022/06/11 05:44:27;;;;;;;;;12.25;8.75;;;;;;;;4977655;28;45329;-65
2022/06/11 05:46:53;;;;;;;;;8.00;8.00;;;;;;;;4978233;28;46128;-67
2022/06/11 05:49:21;;;;;;;;;11.25;8.75;;;;;;;;4977330;28;45463;-66
2022/06/11 05:51:49;;;;;;;;;10.25;8.50;;;;;;;;4977382;28;45257;-65
2022/06/11 05:54:16;;;;;;;;;4.75;4.75;;;;;;;;4975834;28;45635;-65
2022/06/11 05:56:42;;;;;;;;;10.00;8.50;;;;;;;;4977436;28;46435;-66
2022/06/11 05:59:10;;;;;;;;;8.25;8.00;;;;;;;;4975197;28;46290;-66
2022/06/11 06:01:38;;;;;;;;;8.75;8.50;;;;;;;;4977199;28;45224;-67
2022/06/11 06:04:03;;;;;;;;;6.75;6.75;;;;;;;;4977423;28;45517;-66
2022/06/11 06:06:28;;;;;;;;;8.00;7.75;;;;;;;;4975193;28;47740;-66
2022/06/11 06:08:53;;;;;;;;;9.00;8.00;;;;;;;;4977499;28;45508;-66
2022/06/11 06:11:19;;;;;;;;;9.25;8.00;;;;;;;;4977823;28;45337;-67
2022/06/11 06:13:47;;;;;;;;;7.75;7.75;;;;;;;;4977441;28;45419;-65
2022/06/11 06:16:16;;;;;;;;;7.00;6.25;;;;;;;;4976877;28;45714;-66
2022/06/11 06:18:41;;;;;;;;;4.75;4.75;;;;;;;;4976310;28;45736;-65
2022/06/11 06:21:06;;;;;;;;;4.50;3.50;;;;;;;;4976625;28;45312;-65
2022/06/11 06:23:32;;;;;;;;;4.75;4.75;;;;;;;;4977327;28;45500;-65
2022/06/11 06:25:58;;;;;;;;;5.50;5.50;;;;;;;;4992538;28;48080;-65
2022/06/11 06:28:23;;;;;;;;;5.00;5.00;;;;;;;;4976635;28;45473;-66
2022/06/11 06:30:48;;;;;;;;;4.75;4.75;;;;;;;;4976770;28;45448;-67
2022/06/11 06:33:13;;;;;;;;;6.00;6.00;;;;;;;;4975451;28;45421;-67
2022/06/11 06:35:39;;;;;;;;;8.00;8.00;;;;;;;;4976724;28;45522;-67
2022/06/11 06:38:04;;;;;;;;;7.25;5.50;;;;;;;;4977336;28;45399;-66
2022/06/11 06:40:29;;;;;;;;;3.50;3.50;;;;;;;;4976909;28;45488;-67
2022/06/11 06:42:55;;;;;;;;;4.00;4.00;;;;;;;;4975267;28;45426;-66
2022/06/11 06:45:20;;;;;;;;;3.50;3.50;;;;;;;;4976934;28;46713;-66
2022/06/11 06:47:45;;;;;;;;;4.00;4.00;;;;;;;;4976089;28;45408;-67
2022/06/11 06:50:10;;;;;;;;;2.50;2.50;;;;;;;;5009364;28;45339;-67
2022/06/11 06:52:36;;;;;;;;;4.00;4.00;;;;;;;;4975199;28;45438;-67
2022/06/11 06:55:01;;;;;;;;;2.00;2.00;;;;;;;;4974355;28;46446;-67
2022/06/11 06:57:26;;;;;;;;;4.00;3.00;;;;;;;;4975765;28;45324;-67
2022/06/11 06:59:51;;;;;;;;;3.00;3.00;;;;;;;;4976802;28;45555;-67
2022/06/11 07:02:17;;;;;;;;;2.50;2.50;;;;;;;;4975557;28;45395;-67
2022/06/11 07:04:42;;;;;;;;;3.25;3.25;;;;;;;;5007253;28;48494;-67
2022/06/11 07:07:12;;;;;;;;;3.00;3.00;;;;;;;;4974602;28;45458;-67
2022/06/11 07:09:38;;;;;;;;;2.75;2.75;;;;;;;;4973966;28;45463;-67
2022/06/11 07:12:03;;;;;;;;;3.00;3.00;;;;;;;;4973547;28;45532;-67
2022/06/11 07:14:28;;;;;;;;;3.00;2.00;;;;;;;;4972581;28;48687;-67
2022/06/11 07:16:55;;;;;;;;;1.75;1.75;;;;;;;;4974273;28;45470;-67
2022/06/11 07:19:26;;;;;;;;;1.25;1.25;;;;;;;;4974160;28;45403;-67
2022/06/11 07:21:53;;;;;;;;;1.00;1.00;;;;;;;;4972729;28;45584;-66
2022/06/11 07:24:21;;;;;;;;;4.00;2.50;;;;;;;;4973856;28;45927;-69
2022/06/11 07:26:47;;;;;;;;;2.00;2.00;;;;;;;;5004484;28;46322;-66
2022/06/11 07:29:18;;;;;;;;;2.75;2.00;;;;;;;;4973970;28;45401;-66
2022/06/11 07:31:46;;;;;;;;;1.75;1.25;;;;;;;;4973291;28;45483;-67
2022/06/11 07:34:12;;;;;;;;;1.50;1.50;;;;;;;;4971843;28;48191;-68
2022/06/11 07:36:37;;;;;;;;;2.00;2.00;;;;;;;;4972039;28;45621;-68
2022/06/11 07:39:02;;;;;;;;;2.00;2.00;;;;;;;;5005138;28;45540;-67
2022/06/11 07:41:28;;;;;;;;;3.00;2.00;;;;;;;;4972429;28;45427;-68
2022/06/11 07:43:53;;;;;;;;;2.75;2.00;;;;;;;;4988754;28;47508;-68
2022/06/11 07:46:18;;;;;;;;;4.00;3.00;;;;;;;;4973628;28;45363;-67
2022/06/11 07:48:43;;;;;;;;;1.00;1.00;;;;;;;;4972005;28;45714;-68
2022/06/11 07:51:09;;;;;;;;;3.25;3.25;;;;;;;;4973612;28;45474;-67
2022/06/11 07:53:35;;;;;;;;;3.75;2.75;;;;;;;;4973593;28;46518;-68
2022/06/11 07:56:00;;;;;;;;;2.00;2.00;;;;;;;;4974000;28;45339;-68
2022/06/11 07:58:30;;;;;;;;;4.75;3.50;;;;;;;;4973508;28;45299;-67
2022/06/11 08:00:57;;;;;;;;;3.25;3.25;;;;;;;;5004670;28;45386;-68
2022/06/11 08:03:22;;;;;;;;;1.50;1.50;;;;;;;;4973025;28;45769;-68
2022/06/11 08:05:48;;;;;;;;;2.50;2.25;;;;;;;;4973188;28;45679;-68
2022/06/11 08:08:14;;;;;;;;;6.25;3.00;;;;;;;;4973943;28;45681;-68
2022/06/11 08:10:41;;;;;;;;;2.50;2.00;;;;;;;;4973236;28;45377;-67
2022/06/11 08:13:07;;;;;;;;;4.50;3.25;;;;;;;;4972801;28;45596;-68
2022/06/11 08:15:33;;;;;;;;;2.50;2.25;;;;;;;;4971532;28;46016;-69
2022/06/11 08:17:58;;;;;;;;;3.00;2.00;;;;;;;;4972053;28;45341;-68
2022/06/11 08:20:25;;;;;;;;;2.00;2.00;;;;;;;;4971895;28;45441;-67
2022/06/11 08:22:52;;;;;;;;;3.00;2.00;;;;;;;;5005172;28;47757;-67
2022/06/11 08:25:17;;;;;;;;;3.75;2.50;;;;;;;;4976276;28;45522;-67
2022/06/11 08:27:43;;;;;;;;;2.25;2.25;;;;;;;;5008130;28;45530;-68
2022/06/11 08:30:11;;;;;;;;;2.50;2.50;;;;;;;;4976741;28;46536;-68
2022/06/11 08:32:36;;;;;;;;;4.25;3.75;;;;;;;;4976278;28;47727;-68
2022/06/11 08:35:01;;;;;;;;;5.25;4.00;;;;;;;;4976959;28;45328;-68
2022/06/11 08:37:26;;;;;;;;;2.50;2.50;;;;;;;;4976413;28;45587;-68
2022/06/11 08:39:52;;;;;;;;;2.75;2.75;;;;;;;;4976512;28;45525;-69
2022/06/11 08:42:40;;;;;;;;;4.25;3.00;;;;;;;;4976155;28;45561;-68
2022/06/11 08:45:13;;;;;;;;;3.75;3.75;;;;;;;;4973032;28;45437;-69
2022/06/11 08:47:42;;;;;;;;;3.50;3.50;;;;;;;;4976262;28;45565;-69
2022/06/11 08:50:10;;;;;;;;;6.25;4.50;;;;;;;;4976709;28;45438;-68
2022/06/11 08:52:36;;;;;;;;;3.50;3.50;;;;;;;;4974477;28;47892;-68
2022/06/11 08:55:01;;;;;;;;;4.50;3.25;;;;;;;;4975602;28;45576;-68
2022/06/11 08:57:37;;;;;;;;;4.75;3.50;;;;;;;;4975943;28;46577;-68
2022/06/11 09:00:06;;;;;;;;;3.75;3.75;;;;;;;;5000784;28;45493;-69
2022/06/11 09:02:50;;;;;;;;;5.00;4.00;;;;;;;;5004461;28;47493;-69
2022/06/11 09:05:18;;;;;;;;;4.00;4.00;;;;;;;;4973127;28;45662;-70
2022/06/11 09:08:02;;;;;;;;;3.25;3.25;;;;;;;;4988548;28;45574;-68
2022/06/11 09:10:27;;;;;;;;;6.00;4.75;;;;;;;;4972896;28;46181;-67
2022/06/11 09:12:53;;;;;;;;;2.75;2.75;;;;;;;;4973644;28;46363;-69
2022/06/11 09:15:25;;;;;;;;;2.00;2.00;;;;;;;;4970185;28;45543;-68
2022/06/11 09:17:53;;;;;;;;;6.00;4.00;;;;;;;;4970851;28;45550;-68
2022/06/11 09:20:37;;;;;;;;;3.00;3.00;;;;;;;;4975464;28;45479;-68
2022/06/11 09:23:08;;;;;;;;;4.25;4.00;;;;;;;;4976133;28;45416;-68
2022/06/11 09:25:39;;;;;;;;;3.00;3.00;;;;;;;;5007181;28;45466;-68
2022/06/11 09:28:12;;;;;;;;;3.25;3.25;;;;;;;;4975592;28;45602;-68
2022/06/11 09:30:53;;;;;;;;;4.25;4.25;;;;;;;;4975266;28;45359;-68
2022/06/11 09:33:37;;;;;;;;;4.00;3.00;;;;;;;;4974668;28;46440;-69
2022/06/11 09:36:06;;;;;;;;;6.25;3.50;;;;;;;;4961553;28;45519;-67
2022/06/11 09:38:50;;;;;;;;;3.50;3.50;;;;;;;;4968964;28;45590;-71
2022/06/11 09:41:48;;;;;;;;;5.50;5.50;;;;;;;;4991381;28;45506;-68
2022/06/11 09:44:13;;;;;;;;;2.25;2.25;;;;;;;;4958208;28;45982;-68
2022/06/11 09:46:38;;;;;;;;;3.75;2.75;;;;;;;;4959856;28;45379;-67
2022/06/11 09:49:06;;;;;;;;;3.00;3.00;;;;;;;;4958058;28;45531;-68
2022/06/11 09:51:42;;;;;;;;;3.00;3.00;;;;;;;;4958337;28;45517;-68
2022/06/11 09:54:27;;;;;;;;;4.00;4.00;;;;;;;;4965550;28;48060;-68
2022/06/11 09:56:53;;;;;;;;;3.00;3.00;;;;;;;;4955953;28;45440;-68
2022/06/11 09:59:21;;;;;;;;;2.25;2.25;;;;;;;;4968052;28;45471;-69
2022/06/11 10:02:16;;;;;;;;;3.75;2.25;;;;;;;;4956459;28;45546;-67
2022/06/11 10:04:44;;;;;;;;;1.75;1.75;;;;;;;;4960121;28;46547;-67
2022/06/11 10:07:14;;;;;;;;;2.50;2.50;;;;;;;;4957395;28;45415;-67
2022/06/11 10:09:45;;;;;;;;;4.00;3.00;;;;;;;;4944802;28;45635;-68
2022/06/11 10:12:10;;;;;;;;;3.00;3.00;;;;;;;;4965426;28;45531;-68
2022/06/11 10:14:45;;;;;;;;;2.25;2.25;;;;;;;;4958654;28;45702;-67
2022/06/11 10:17:29;;;;;;;;;2.25;2.00;;;;;;;;4956237;28;45500;-67
2022/06/11 10:20:03;;;;;;;;;2.75;2.25;;;;;;;;4958052;28;45525;-67
2022/06/11 10:22:40;;;;;;;;;6.25;4.00;;;;;;;;4988954;28;45484;-68
2022/06/11 10:25:11;;;;;;;;;4.00;3.75;;;;;;;;4984369;28;45703;-67
2022/06/11 10:27:40;;;;;;;;;4.00;3.25;;;;;;;;4986691;28;45457;-68
2022/06/11 10:30:41;;;;;;;;;3.50;2.25;;;;;;;;4990822;28;45526;-70
2022/06/11 10:33:17;;;;;;;;;4.75;3.50;;;;;;;;4981767;28;46194;-68
2022/06/11 10:35:45;;;;;;;;;4.75;3.25;;;;;;;;4989644;28;45732;-68
2022/06/11 10:38:25;;;;;;;;;3.75;3.75;;;;;;;;4983059;28;45526;-66
2022/06/11 10:40:51;;;;;;;;;7.00;6.50;;;;;;;;4990186;28;45627;-67
2022/06/11 10:43:22;;;;;;;;;4.25;4.25;;;;;;;;4982881;28;45594;-67
2022/06/11 10:45:48;;;;;;;;;2.75;2.50;;;;;;;;4981327;28;47888;-67
2022/06/11 10:48:19;;;;;;;;;4.75;4.50;;;;;;;;4990541;28;45549;-68
2022/06/11 10:50:45;;;;;;;;;2.00;2.00;;;;;;;;4980161;28;45395;-67
2022/06/11 10:53:22;;;;;;;;;3.00;3.00;;;;;;;;4985763;28;45455;-65
2022/06/11 10:56:14;;;;;;;;;2.00;2.00;;;;;;;;4962686;28;48682;-67
2022/06/11 10:58:42;;;;;;;;;2.25;2.25;;;;;;;;4985185;28;45601;-68
2022/06/11 11:01:12;;;;;;;;;1.25;1.00;;;;;;;;4983841;28;45434;-68
2022/06/11 11:03:57;;;;;;;;;1.25;1.25;;;;;;;;4965015;28;45527;-67
2022/06/11 11:06:25;;;;;;;;;3.00;2.25;;;;;;;;4990284;28;45483;-67
2022/06/11 11:08:54;;;;;;;;;1.00;1.00;;;;;;;;4981015;28;45544;-67
2022/06/11 11:11:20;;;;;;;;;2.00;2.00;;;;;;;;4993018;28;45493;-69
2022/06/11 11:13:46;;;;;;;;;1.25;1.25;;;;;;;;4979708;28;45927;-67
2022/06/11 11:16:11;;;;;;;;;2.00;2.00;;;;;;;;4987945;28;45779;-67
2022/06/11 11:18:41;;;;;;;;;3.25;2.00;;;;;;;;4983566;28;45448;-66
2022/06/11 11:21:15;;;;;;;;;2.75;1.75;;;;;;;;4974739;28;45954;-66
2022/06/11 11:23:41;;;;;;;;;2.00;2.00;;;;;;;;4990453;28;45450;-67
2022/06/11 11:26:12;;;;;;;;;1.75;1.75;;;;;;;;4983450;28;45671;-67
2022/06/11 11:28:45;;;;;;;;;1.00;1.00;;;;;;;;4988142;28;45377;-67
2022/06/11 11:31:31;;;;;;;;;1.50;1.50;;;;;;;;4982992;28;45519;-67
2022/06/11 11:33:57;;;;;;;;;3.00;1.00;;;;;;;;4980007;28;45606;-68
2022/06/11 11:36:25;;;;;;;;;6.75;4.00;;;;;;;;5000023;28;48210;-69
2022/06/11 11:39:08;;;;;;;;;2.00;2.00;;;;;;;;5020503;28;45832;-67
2022/06/11 11:41:35;;;;;;;;;2.00;2.00;;;;;;;;4989942;28;45570;-67
2022/06/11 11:44:00;;;;;;;;;1.25;1.25;;;;;;;;4982597;28;45417;-67
2022/06/11 11:46:31;;;;;;;;;2.25;2.25;;;;;;;;4986390;28;45677;-66
2022/06/11 11:48:58;;;;;;;;;3.25;2.00;;;;;;;;4984355;28;45589;-67
2022/06/11 11:51:25;;;;;;;;;2.25;2.25;;;;;;;;4977683;28;45606;-67
2022/06/11 11:53:58;;;;;;;;;2.00;2.00;;;;;;;;4987892;28;45459;-68
2022/06/11 11:56:29;;;;;;;;;2.50;2.25;;;;;;;;4982919;28;45870;-67
2022/06/11 11:58:56;;;;;;;;;6.00;4.00;;;;;;;;4999263;28;45470;-67
2022/06/11 12:01:22;;;;;;;;;2.75;2.75;;;;;;;;4967253;28;45590;-66
2022/06/11 12:03:57;;;;;;;;;4.00;4.00;;;;;;;;4985354;28;45680;-64
2022/06/11 12:06:27;;;;;;;;;1.25;1.25;;;;;;;;4975460;28;45565;-66
2022/06/11 12:08:54;;;;;;;;;2.00;2.00;;;;;;;;4971752;28;45459;-66
2022/06/11 12:11:25;;;;;;;;;2.75;2.75;;;;;;;;4973385;28;45949;-66
2022/06/11 12:13:58;;;;;;;;;3.25;2.50;;;;;;;;5016268;28;45608;-66
2022/06/11 12:16:36;;;;;;;;;1.50;1.50;;;;;;;;4979343;28;46058;-66
2022/06/11 12:19:11;;;;;;;;;2.00;2.00;;;;;;;;4976446;28;46050;-65
2022/06/11 12:21:39;;;;;;;;;3.25;2.00;;;;;;;;4975031;28;45828;-65
2022/06/11 12:24:17;;;;;;;;;1.75;1.75;;;;;;;;5005527;28;45501;-66
2022/06/11 12:26:48;;;;;;;;;1.00;1.00;;;;;;;;4972482;28;46486;-66
2022/06/11 12:29:16;;;;;;;;;1.75;1.00;;;;;;;;4976878;28;45567;-66
2022/06/11 12:31:41;;;;;;;;;4.00;2.00;;;;;;;;4974948;28;45532;-66
2022/06/11 12:34:14;;;;;;;;;0.00;0.00;;;;;;;;4975394;28;45507;-67
2022/06/11 12:36:42;;;;;;;;;2.00;2.00;;;;;;;;4976547;28;46061;-66
2022/06/11 12:39:16;;;;;;;;;3.75;2.25;;;;;;;;4974385;28;45624;-66
2022/06/11 12:41:44;;;;;;;;;4.00;4.00;;;;;;;;4966513;28;46600;-66
2022/06/11 12:44:25;;;;;;;;;3.00;3.00;;;;;;;;4976774;28;45648;-67
2022/06/11 12:46:56;;;;;;;;;3.75;2.00;;;;;;;;4987964;28;46473;-67
2022/06/11 12:49:40;;;;;;;;;3.00;3.00;;;;;;;;5014267;28;45990;-66
2022/06/11 12:52:08;;;;;;;;;2.00;2.00;;;;;;;;4987553;28;45574;-66
2022/06/11 12:54:37;;;;;;;;;1.25;1.25;;;;;;;;4985885;28;45896;-67
2022/06/11 12:57:03;;;;;;;;;2.50;2.50;;;;;;;;5004796;28;47538;-65
2022/06/11 12:59:41;;;;;;;;;3.50;2.25;;;;;;;;5006411;28;45569;-64
2022/06/11 13:02:09;;;;;;;;;2.00;2.00;;;;;;;;4977431;28;45358;-65
2022/06/11 13:04:41;;;;;;;;;1.00;1.00;;;;;;;;4974186;28;45611;-64
2022/06/11 13:07:11;;;;;;;;;1.50;1.50;;;;;;;;4978131;28;45557;-63
2022/06/11 13:09:52;;;;;;;;;2.00;1.00;;;;;;;;4987874;28;45601;-66
2022/06/11 13:12:33;;;;;;;;;2.25;2.25;;;;;;;;4974208;28;45455;-65
2022/06/11 13:15:08;;;;;;;;;3.00;2.75;;;;;;;;4960609;28;45467;-68
2022/06/11 13:17:54;;;;;;;;;4.75;4.50;;;;;;;;5024327;28;46549;-66
2022/06/11 13:20:32;;;;;;;;;2.00;2.00;;;;;;;;4991407;28;45378;-65
2022/06/11 13:23:15;;;;;;;;;1.00;1.00;;;;;;;;4977894;28;45555;-67
2022/06/11 13:26:07;;;;;;;;;1.25;1.00;;;;;;;;4978353;28;45960;-70
2022/06/11 13:28:39;;;;;;;;;2.25;1.00;;;;;;;;4971998;28;46397;-67
2022/06/11 13:31:14;;;;;;;;;1.00;1.00;;;;;;;;4974256;28;47963;-68
2022/06/11 13:33:52;;;;;;;;;3.75;2.00;;;;;;;;4970255;28;45581;-69
2022/06/11 13:36:26;;;;;;;;;1.00;1.00;;;;;;;;4972247;28;45970;-68
2022/06/11 13:38:51;;;;;;;;;2.00;2.00;;;;;;;;4972734;28;47755;-68
2022/06/11 13:41:22;;;;;;;;;2.00;2.00;;;;;;;;4971211;28;46935;-70
2022/06/11 13:43:58;;;;;;;;;1.00;1.00;;;;;;;;4971920;28;45861;-70
2022/06/11 13:46:34;;;;;;;;;0.25;0.25;;;;;;;;4956985;28;45608;-68
2022/06/11 13:49:18;;;;;;;;;2.00;2.00;;;;;;;;4955013;28;46292;-70
2022/06/11 13:51:46;;;;;;;;;0.75;0.75;;;;;;;;4972280;28;45463;-69
2022/06/11 13:57:32;;;;;;;;;1.00;1.00;;;;;;;;4927762;28;47105;-69
2022/06/11 14:00:06;;;;;;;;;2.00;2.00;;;;;;;;4911003;28;47269;-69
2022/06/11 14:02:31;;;;;;;;;1.00;1.00;;;;;;;;4913684;28;45428;-69
2022/06/11 14:05:03;;;;;;;;;4.50;3.50;;;;;;;;4931533;28;45594;-69
2022/06/11 14:07:30;;;;;;;;;1.00;1.00;;;;;;;;4917981;28;45580;-69
2022/06/11 14:10:28;;;;;;;;;6.75;5.25;;;;;;;;4895668;28;47608;-69
2022/06/11 14:13:03;;;;;;;;;3.00;2.00;;;;;;;;4912821;28;45427;-70
2022/06/11 14:15:31;;;;;;;;;2.00;2.00;;;;;;;;4912155;28;45948;-69
2022/06/11 14:17:57;;;;;;;;;1.25;1.25;;;;;;;;4895767;28;45883;-71
2022/06/11 14:20:31;;;;;;;;;1.00;1.00;;;;;;;;4915273;28;46073;-70
2022/06/11 14:23:26;;;;;;;;;1.25;1.25;;;;;;;;4928265;28;46277;-70
2022/06/11 14:25:56;;;;;;;;;1.75;1.00;;;;;;;;4908769;28;45633;-69
2022/06/11 14:28:24;;;;;;;;;2.75;1.00;;;;;;;;4900073;28;45344;-68
2022/06/11 14:30:59;;;;;;;;;2.00;2.00;;;;;;;;4916640;28;47387;-69
2022/06/11 14:33:29;;;;;;;;;1.00;1.00;;;;;;;;4970874;28;45467;-69
2022/06/11 14:35:54;;;;;;;;;1.75;1.75;;;;;;;;4986318;28;45498;-69
2022/06/11 14:38:32;;;;;;;;;3.00;1.50;;;;;;;;4975855;28;45427;-70
2022/06/11 14:41:07;;;;;;;;;1.00;1.00;;;;;;;;5006251;28;46203;-69
2022/06/11 14:43:52;;;;;;;;;1.00;1.00;;;;;;;;5007085;28;45343;-69
2022/06/11 14:49:02;;;;;;;;;1.50;1.50;;;;;;;;4976554;28;45263;-68
2022/06/11 14:51:35;;;;;;;;;1.25;1.25;;;;;;;;5007602;28;46628;-70
2022/06/11 14:54:00;;;;;;;;;2.00;2.00;;;;;;;;4976217;28;45523;-70
2022/06/11 14:56:27;;;;;;;;;1.00;1.00;;;;;;;;4976223;28;45892;-71
2022/06/11 14:59:11;;;;;;;;;2.00;0.00;;;;;;;;4974749;28;45461;-69
2022/06/11 15:01:55;;;;;;;;;2.25;1.75;;;;;;;;4975848;28;45315;-71
2022/06/11 15:04:53;;;;;;;;;1.75;1.75;;;;;;;;4974856;28;46514;-68